Time;durP1;ratioP1;P1;durP2;ratioP2;P2;SDS_P1;SDS_P2;PMS_P1;PMS_P2;Temp;Humidity;BMP_temperature;BMP_pressure;BME280_temperature;BME280_humidity;BME280_pressure;Samples;Min_cycle;Max_cycle;Signal;HPM_P1;HPM_P2
2022/10/22 00:02:06;;;;;;;20.87;14.67;;;9.80;99.90;;;;;;5112874;28;20215;-70
2022/10/22 00:04:33;;;;;;;18.57;12.80;;;9.80;99.90;;;;;;5110911;28;20204;-69
2022/10/22 00:07:00;;;;;;;22.60;13.60;;;9.90;99.90;;;;;;5113049;28;20707;-70
2022/10/22 00:09:27;;;;;;;21.93;13.77;;;9.90;99.90;;;;;;5111830;28;20220;-71
2022/10/22 00:11:53;;;;;;;20.50;14.53;;;9.90;99.90;;;;;;5111814;28;20200;-70
2022/10/22 00:14:21;;;;;;;18.27;12.97;;;9.90;99.90;;;;;;5110526;28;20199;-70
2022/10/22 00:16:48;;;;;;;21.53;14.53;;;9.90;99.90;;;;;;5113716;28;20588;-71
2022/10/22 00:19:15;;;;;;;21.90;13.83;;;9.90;99.90;;;;;;5110715;28;20195;-70
2022/10/22 00:21:42;;;;;;;19.37;13.87;;;9.90;99.90;;;;;;5113095;28;20581;-69
2022/10/22 00:24:08;;;;;;;22.17;13.30;;;9.90;99.90;;;;;;5112505;28;20243;-70
2022/10/22 00:26:35;;;;;;;19.37;13.53;;;9.90;99.90;;;;;;5110455;28;20203;-69
2022/10/22 00:29:02;;;;;;;21.27;14.63;;;9.90;99.90;;;;;;5110379;28;20421;-70
2022/10/22 00:31:30;;;;;;;19.63;13.73;;;9.90;99.90;;;;;;5112827;28;20548;-70
2022/10/22 00:33:57;;;;;;;19.63;13.40;;;9.90;99.90;;;;;;5111069;28;20660;-70
2022/10/22 00:36:23;;;;;;;19.17;14.30;;;9.90;99.90;;;;;;5110519;28;20203;-69
2022/10/22 00:38:50;;;;;;;17.83;13.73;;;9.90;99.90;;;;;;5111680;28;20653;-70
2022/10/22 00:41:17;;;;;;;23.53;12.77;;;9.90;99.90;;;;;;5111561;28;20212;-70
2022/10/22 00:43:55;;;;;;;20.10;14.40;;;9.90;99.90;;;;;;5108817;28;20208;-69
2022/10/22 00:46:22;;;;;;;17.13;13.00;;;9.90;99.90;;;;;;5109156;28;20204;-70
2022/10/22 00:48:50;;;;;;;20.60;13.10;;;9.90;99.90;;;;;;5112336;28;20204;-70
2022/10/22 00:51:18;;;;;;;18.13;13.50;;;9.90;99.90;;;;;;5111771;28;20204;-70
2022/10/22 00:53:48;;;;;;;18.53;12.53;;;9.80;99.90;;;;;;5111897;28;20207;-71
2022/10/22 00:56:15;;;;;;;21.97;12.77;;;10.00;99.90;;;;;;5110412;28;20210;-71
2022/10/22 00:58:46;;;;;;;17.40;13.20;;;10.00;99.90;;;;;;5109815;28;20207;-70
2022/10/22 01:01:16;;;;;;;18.90;13.43;;;10.00;99.90;;;;;;5113457;28;20199;-70
2022/10/22 01:03:43;;;;;;;18.63;12.57;;;10.00;99.90;;;;;;5111395;28;20548;-71
2022/10/22 01:06:21;;;;;;;17.57;13.63;;;10.00;99.90;;;;;;5112259;27;20360;-71
2022/10/22 01:08:55;;;;;;;21.20;13.37;;;10.00;99.90;;;;;;5111348;28;20175;-70
2022/10/22 01:11:27;;;;;;;18.57;13.00;;;10.00;99.90;;;;;;5112388;28;20196;-70
2022/10/22 01:14:04;;;;;;;18.87;12.97;;;10.00;99.90;;;;;;5109438;28;20208;-70
2022/10/22 01:16:37;;;;;;;17.50;13.33;;;10.00;99.90;;;;;;5112957;28;20203;-71
2022/10/22 01:19:18;;;;;;;19.03;13.27;;;10.00;99.90;;;;;;5111830;28;20560;-72
2022/10/22 01:21:52;;;;;;;19.37;14.37;;;10.00;99.90;;;;;;5112480;28;20226;-71
2022/10/22 01:24:38;;;;;;;19.53;13.27;;;10.00;99.90;;;;;;5112546;28;20207;-70
2022/10/22 01:27:31;;;;;;;18.10;13.43;;;10.00;99.90;;;;;;5105995;28;20200;-69
2022/10/22 01:30:03;;;;;;;20.60;13.40;;;10.00;99.90;;;;;;5111501;28;20204;-69
2022/10/22 01:32:33;;;;;;;20.43;13.90;;;10.00;99.90;;;;;;5110426;28;20203;-69
2022/10/22 01:35:04;;;;;;;18.23;13.20;;;10.00;99.90;;;;;;5100159;28;20234;-68
2022/10/22 01:37:34;;;;;;;20.20;13.13;;;10.00;99.90;;;;;;5104498;28;20231;-68
2022/10/22 01:40:02;;;;;;;20.40;13.50;;;10.00;99.90;;;;;;5111034;28;20200;-69
2022/10/22 01:42:29;;;;;;;22.13;13.70;;;10.00;99.90;;;;;;5106621;28;20231;-69
2022/10/22 01:44:55;;;;;;;15.93;12.63;;;10.00;99.90;;;;;;5107791;28;20567;-70
2022/10/22 01:47:40;;;;;;;19.00;13.73;;;10.00;99.90;;;;;;5112015;28;20294;-69
2022/10/22 01:50:35;;;;;;;18.30;12.73;;;10.00;99.90;;;;;;5110216;28;20232;-69
2022/10/22 01:53:25;;;;;;;22.30;13.97;;;10.00;99.90;;;;;;5108893;28;20192;-69
2022/10/22 01:56:09;;;;;;;18.50;14.07;;;10.00;99.90;;;;;;5110600;28;20204;-70
2022/10/22 01:58:43;;;;;;;19.67;13.97;;;10.00;99.90;;;;;;5109539;28;20231;-69
2022/10/22 02:01:18;;;;;;;17.90;13.73;;;10.10;99.90;;;;;;5111122;28;20196;-69
2022/10/22 02:03:52;;;;;;;18.20;13.40;;;10.00;99.90;;;;;;5110039;28;20211;-70
2022/10/22 02:06:23;;;;;;;19.20;14.13;;;10.00;99.90;;;;;;5105717;28;20232;-69
2022/10/22 02:08:51;;;;;;;18.73;13.47;;;10.00;99.90;;;;;;5110184;28;20206;-69
2022/10/22 02:11:18;;;;;;;21.37;14.83;;;10.00;99.90;;;;;;5110668;28;20677;-69
2022/10/22 02:13:48;;;;;;;16.73;12.33;;;10.10;99.90;;;;;;5108450;28;20204;-70
2022/10/22 02:16:18;;;;;;;20.27;13.87;;;10.00;99.90;;;;;;5109917;28;20207;-70
2022/10/22 02:18:50;;;;;;;17.17;13.47;;;10.00;99.90;;;;;;5109592;28;20208;-69
2022/10/22 02:21:17;;;;;;;17.60;14.20;;;10.00;99.90;;;;;;5110908;28;20196;-70
2022/10/22 02:23:45;;;;;;;19.10;14.40;;;10.00;99.90;;;;;;5110662;28;20247;-70
2022/10/22 02:26:19;;;;;;;18.83;14.00;;;9.90;99.90;;;;;;5110367;28;20208;-70
2022/10/22 02:28:52;;;;;;;19.97;14.00;;;9.90;99.90;;;;;;5107147;28;20215;-70
2022/10/22 02:31:23;;;;;;;18.67;13.53;;;9.90;99.90;;;;;;5109923;28;20207;-71
2022/10/22 02:33:55;;;;;;;18.20;13.60;;;9.90;99.90;;;;;;5101557;28;20212;-69
2022/10/22 02:36:23;;;;;;;18.33;13.67;;;9.90;99.90;;;;;;5109820;28;20192;-70
2022/10/22 02:38:51;;;;;;;18.50;13.77;;;9.80;99.90;;;;;;5110670;28;20212;-69
2022/10/22 02:41:18;;;;;;;19.70;13.63;;;9.80;99.90;;;;;;5111171;28;20207;-70
2022/10/22 02:43:50;;;;;;;20.27;14.40;;;9.80;99.90;;;;;;5108005;28;20324;-69
2022/10/22 02:46:17;;;;;;;20.87;14.37;;;9.80;99.90;;;;;;5109260;28;20192;-69
2022/10/22 02:48:44;;;;;;;21.10;14.63;;;9.80;99.90;;;;;;5110463;28;20302;-69
2022/10/22 02:51:12;;;;;;;18.97;14.57;;;9.80;99.90;;;;;;5109465;28;20211;-70
2022/10/22 02:53:39;;;;;;;19.13;14.77;;;9.80;99.90;;;;;;5108772;28;20207;-69
2022/10/22 02:56:06;;;;;;;21.27;15.57;;;9.80;99.90;;;;;;5109323;28;20207;-69
2022/10/22 02:58:33;;;;;;;22.53;14.60;;;9.80;99.90;;;;;;5105226;28;20215;-69
2022/10/22 03:00:59;;;;;;;19.83;14.63;;;9.90;99.90;;;;;;5109911;28;20203;-69
2022/10/22 03:03:26;;;;;;;20.67;14.90;;;9.90;99.90;;;;;;5110133;28;20228;-70
2022/10/22 03:05:53;;;;;;;16.57;14.10;;;9.90;99.90;;;;;;5110335;28;20231;-70
2022/10/22 03:08:21;;;;;;;19.17;15.20;;;9.90;99.90;;;;;;5108925;28;20566;-70
2022/10/22 03:10:48;;;;;;;19.40;14.40;;;9.90;99.90;;;;;;5109246;28;20230;-69
2022/10/22 03:13:14;;;;;;;17.67;13.90;;;9.90;99.90;;;;;;5108124;28;20192;-70
2022/10/22 03:15:41;;;;;;;19.57;14.53;;;9.90;99.90;;;;;;5108575;28;20212;-69
2022/10/22 03:18:08;;;;;;;20.30;15.10;;;9.90;99.90;;;;;;5111122;28;20208;-69
2022/10/22 03:20:35;;;;;;;17.20;14.33;;;10.00;99.90;;;;;;5110066;28;20204;-69
2022/10/22 03:23:02;;;;;;;18.83;13.20;;;9.90;99.90;;;;;;5110668;28;20220;-69
2022/10/22 03:25:33;;;;;;;16.30;13.10;;;9.90;99.90;;;;;;5105714;28;20204;-69
2022/10/22 03:28:03;;;;;;;17.63;13.47;;;9.90;99.90;;;;;;5108748;28;20200;-69
2022/10/22 03:30:30;;;;;;;17.27;13.27;;;10.00;99.90;;;;;;5110969;28;20250;-69
2022/10/22 03:32:57;;;;;;;16.57;13.17;;;10.00;99.90;;;;;;5110313;28;20211;-70
2022/10/22 03:35:24;;;;;;;17.03;13.43;;;10.00;99.90;;;;;;5109657;28;20208;-69
2022/10/22 03:37:51;;;;;;;16.13;12.73;;;10.00;99.90;;;;;;5110412;28;20216;-69
2022/10/22 03:40:18;;;;;;;18.50;13.67;;;10.10;99.90;;;;;;5108066;28;20296;-69
2022/10/22 03:42:47;;;;;;;16.33;13.20;;;10.10;99.90;;;;;;5107850;28;20226;-69
2022/10/22 03:45:13;;;;;;;17.30;13.97;;;10.10;99.90;;;;;;5109373;28;20207;-70
2022/10/22 03:47:40;;;;;;;18.40;13.93;;;10.10;99.90;;;;;;5108112;28;20203;-70
2022/10/22 03:50:08;;;;;;;19.53;13.97;;;10.10;99.90;;;;;;5109838;28;20615;-70
2022/10/22 03:52:37;;;;;;;18.73;15.10;;;10.10;99.90;;;;;;5110262;28;20207;-70
2022/10/22 03:55:04;;;;;;;18.33;14.80;;;10.10;99.90;;;;;;5108965;28;20204;-70
2022/10/22 03:57:32;;;;;;;18.07;13.70;;;10.10;99.90;;;;;;5105905;28;20207;-70
2022/10/22 04:00:00;;;;;;;19.37;13.23;;;10.10;99.90;;;;;;5108859;28;20208;-70
2022/10/22 04:02:26;;;;;;;17.20;13.50;;;10.20;99.90;;;;;;5110247;28;20211;-70
2022/10/22 04:04:53;;;;;;;17.87;13.17;;;10.20;99.90;;;;;;5109305;28;20193;-69
2022/10/22 04:07:20;;;;;;;17.83;13.53;;;10.20;99.90;;;;;;5109969;28;20196;-70
2022/10/22 04:09:46;;;;;;;17.83;13.27;;;10.20;99.90;;;;;;5110188;28;20204;-69
2022/10/22 04:12:13;;;;;;;17.63;13.60;;;10.30;99.90;;;;;;5108673;28;20196;-70
2022/10/22 04:14:40;;;;;;;19.17;14.03;;;10.20;99.90;;;;;;5106767;28;20212;-71
2022/10/22 04:17:08;;;;;;;16.83;13.67;;;10.20;99.90;;;;;;5108899;28;20231;-70
2022/10/22 04:19:35;;;;;;;17.97;13.70;;;10.20;99.90;;;;;;5108372;28;20286;-70
2022/10/22 04:22:02;;;;;;;17.10;13.73;;;10.20;99.90;;;;;;5111365;28;20739;-70
2022/10/22 04:24:30;;;;;;;18.67;14.13;;;10.20;99.90;;;;;;5112784;28;20231;-70
2022/10/22 04:26:57;;;;;;;17.53;13.80;;;10.20;99.90;;;;;;5108416;28;20303;-71
2022/10/22 04:29:24;;;;;;;20.87;13.77;;;10.20;99.90;;;;;;5105204;27;20678;-70
2022/10/22 04:31:51;;;;;;;16.30;13.43;;;10.20;99.90;;;;;;5109531;28;20204;-70
2022/10/22 04:34:19;;;;;;;15.47;13.50;;;10.30;99.90;;;;;;5115616;27;20200;-70
2022/10/22 04:36:46;;;;;;;19.23;13.13;;;10.30;99.90;;;;;;5111878;28;20204;-70
2022/10/22 04:39:13;;;;;;;16.27;13.00;;;10.30;99.90;;;;;;5113686;28;20224;-69
2022/10/22 04:41:40;;;;;;;16.80;12.67;;;10.30;99.90;;;;;;5112010;28;20247;-70
2022/10/22 04:44:07;;;;;;;16.57;13.93;;;10.30;99.90;;;;;;5110029;28;20223;-70
2022/10/22 04:46:35;;;;;;;17.93;13.67;;;10.50;99.90;;;;;;5110793;27;20578;-70
2022/10/22 04:49:03;;;;;;;15.33;12.80;;;10.30;99.90;;;;;;5109140;28;20766;-70
2022/10/22 04:51:32;;;;;;;15.63;12.47;;;10.30;99.90;;;;;;5108859;28;20573;-70
2022/10/22 04:53:58;;;;;;;16.57;13.57;;;10.30;99.90;;;;;;5114254;28;20200;-71
2022/10/22 04:56:28;;;;;;;17.60;13.13;;;10.30;99.90;;;;;;5112409;28;20204;-70
2022/10/22 04:58:56;;;;;;;17.77;13.67;;;10.30;99.90;;;;;;5113379;28;20211;-70
2022/10/22 05:01:25;;;;;;;14.87;13.27;;;10.30;99.90;;;;;;5110754;28;20222;-70
2022/10/22 05:03:53;;;;;;;17.47;13.20;;;10.40;99.90;;;;;;5112739;28;20576;-70
2022/10/22 05:06:21;;;;;;;16.90;13.37;;;10.40;99.90;;;;;;5109490;28;20239;-70
2022/10/22 05:08:53;;;;;;;19.13;13.67;;;10.30;99.90;;;;;;5111398;28;20204;-69
2022/10/22 05:11:21;;;;;;;16.23;13.63;;;10.40;99.90;;;;;;5113374;28;20687;-70
2022/10/22 05:13:49;;;;;;;18.03;13.30;;;10.40;99.90;;;;;;5111277;28;20203;-69
2022/10/22 05:16:15;;;;;;;18.57;12.90;;;10.40;99.90;;;;;;5108853;28;20208;-71
2022/10/22 05:18:44;;;;;;;17.47;13.90;;;10.40;99.90;;;;;;5111339;28;20687;-70
2022/10/22 05:21:12;;;;;;;18.03;13.20;;;10.40;99.90;;;;;;5110194;28;22534;-70
2022/10/22 05:23:39;;;;;;;16.37;12.57;;;10.50;99.90;;;;;;5106348;28;20239;-69
2022/10/22 05:26:09;;;;;;;20.23;13.73;;;10.40;99.90;;;;;;5111195;28;20221;-70
2022/10/22 05:28:36;;;;;;;21.10;14.03;;;10.40;99.90;;;;;;5111698;28;20231;-71
2022/10/22 05:31:04;;;;;;;16.20;12.23;;;10.40;99.90;;;;;;5112623;28;20204;-69
2022/10/22 05:33:33;;;;;;;18.03;13.30;;;10.40;99.90;;;;;;5109754;28;20564;-70
2022/10/22 05:36:00;;;;;;;15.60;12.63;;;10.40;99.90;;;;;;5111361;28;20208;-70
2022/10/22 05:38:27;;;;;;;17.10;13.23;;;10.40;99.90;;;;;;5111045;28;20199;-69
2022/10/22 05:41:04;;;;;;;21.80;16.53;;;10.50;99.90;;;;;;5112509;27;20204;-70
2022/10/22 05:43:33;;;;;;;18.70;13.70;;;10.50;99.90;;;;;;5104979;28;20222;-69
2022/10/22 05:46:02;;;;;;;18.67;12.70;;;10.50;99.90;;;;;;5108681;28;20219;-69
2022/10/22 05:48:29;;;;;;;19.37;14.03;;;10.50;99.90;;;;;;5108299;28;20208;-69
2022/10/22 05:50:56;;;;;;;16.43;13.30;;;10.50;99.90;;;;;;5109316;28;20208;-68
2022/10/22 05:53:23;;;;;;;15.47;12.67;;;10.50;99.90;;;;;;5109144;28;20227;-69
2022/10/22 05:55:49;;;;;;;15.40;12.87;;;10.60;99.90;;;;;;5111919;28;20655;-68
2022/10/22 05:58:16;;;;;;;20.63;13.67;;;10.50;99.90;;;;;;5109058;28;20208;-69
2022/10/22 06:00:44;;;;;;;17.93;12.80;;;10.60;99.90;;;;;;5110940;28;20211;-68
2022/10/22 06:03:11;;;;;;;17.07;12.87;;;10.60;99.90;;;;;;5110995;28;20235;-68
2022/10/22 06:05:38;;;;;;;17.90;13.10;;;10.70;99.90;;;;;;5109554;28;20687;-68
2022/10/22 06:08:05;;;;;;;16.90;12.33;;;10.70;99.90;;;;;;5109933;28;20208;-68
2022/10/22 06:10:32;;;;;;;18.30;13.27;;;10.70;99.90;;;;;;5112044;28;20215;-74
2022/10/22 06:13:00;;;;;;;14.67;12.40;;;10.70;99.90;;;;;;5110961;28;20216;-69
2022/10/22 06:15:27;;;;;;;18.50;12.57;;;10.80;99.90;;;;;;5109839;28;20218;-69
2022/10/22 06:17:55;;;;;;;15.07;11.93;;;10.80;99.90;;;;;;5103551;28;20196;-66
2022/10/22 06:20:21;;;;;;;18.38;13.63;;;10.80;99.90;;;;;;5093944;28;20455;-66
2022/10/22 06:22:48;;;;;;;18.53;12.40;;;10.80;99.90;;;;;;5109467;28;20696;-66
2022/10/22 06:25:15;;;;;;;14.53;11.87;;;10.80;99.90;;;;;;5107624;28;20790;-67
2022/10/22 06:27:42;;;;;;;14.77;11.73;;;10.90;99.90;;;;;;5108138;28;20199;-67
2022/10/22 06:30:09;;;;;;;15.77;11.63;;;10.90;99.90;;;;;;5109487;28;20212;-67
2022/10/22 06:32:36;;;;;;;19.40;13.03;;;10.90;99.90;;;;;;5108466;28;20658;-67
2022/10/22 06:35:05;;;;;;;15.80;12.13;;;10.90;99.90;;;;;;5106218;28;20579;-67
2022/10/22 06:37:32;;;;;;;17.43;12.67;;;11.00;99.90;;;;;;5106591;28;20207;-68
2022/10/22 06:39:58;;;;;;;14.77;11.97;;;11.00;99.90;;;;;;5108681;28;20212;-68
2022/10/22 06:42:25;;;;;;;20.15;15.40;;;11.00;99.90;;;;;;5101832;28;20446;-68
2022/10/22 06:44:52;;;;;;;14.10;12.43;;;11.00;99.90;;;;;;5105374;28;20684;-71
2022/10/22 06:47:19;;;;;;;16.67;13.07;;;11.10;99.90;;;;;;5109185;28;20204;-70
2022/10/22 06:49:45;;;;;;;16.43;12.20;;;11.00;99.90;;;;;;5107812;28;20214;-70
2022/10/22 06:52:14;;;;;;;15.00;12.07;;;11.10;99.90;;;;;;5108379;28;20208;-72
2022/10/22 06:54:41;;;;;;;14.83;11.77;;;11.10;99.90;;;;;;5108200;28;20648;-73
2022/10/22 06:57:08;;;;;;;17.47;12.23;;;11.20;99.90;;;;;;5109923;28;20218;-71
2022/10/22 06:59:34;;;;;;;17.47;12.37;;;11.20;99.90;;;;;;5109591;28;21688;-73
2022/10/22 07:02:01;;;;;;;16.97;12.73;;;11.20;99.90;;;;;;5106489;28;20211;-70
2022/10/22 07:04:28;;;;;;;15.07;11.87;;;11.30;99.90;;;;;;5109727;28;20233;-73
2022/10/22 07:06:55;;;;;;;15.43;12.10;;;11.30;99.90;;;;;;5108548;28;20609;-73
2022/10/22 07:09:23;;;;;;;17.33;12.47;;;11.30;99.90;;;;;;5111326;28;20204;-73
2022/10/22 07:11:50;;;;;;;15.53;12.90;;;11.30;99.90;;;;;;5104990;28;20200;-73
2022/10/22 07:14:17;;;;;;;15.77;13.10;;;11.30;99.90;;;;;;5102578;28;20290;-72
2022/10/22 07:16:44;;;;;;;20.23;14.47;;;11.30;99.90;;;;;;5101024;28;20196;-75
2022/10/22 07:19:11;;;;;;;17.17;13.30;;;11.30;99.90;;;;;;5107074;28;20218;-72
2022/10/22 07:21:38;;;;;;;19.73;13.33;;;11.30;99.90;;;;;;5108375;28;20672;-70
2022/10/22 07:24:05;;;;;;;17.53;12.83;;;11.30;99.90;;;;;;5107694;28;20267;-72
2022/10/22 07:26:33;;;;;;;15.27;12.20;;;11.40;99.90;;;;;;5107717;28;20573;-72
2022/10/22 07:29:00;;;;;;;18.00;13.20;;;11.40;99.90;;;;;;5107364;28;20214;-73
2022/10/22 07:31:27;;;;;;;19.60;14.07;;;11.40;99.90;;;;;;5110236;28;20664;-73
2022/10/22 07:33:54;;;;;;;19.20;12.20;;;11.40;99.90;;;;;;5105918;28;20363;-71
2022/10/22 07:36:24;;;;;;;13.77;12.20;;;11.40;99.90;;;;;;5108737;28;20204;-71
2022/10/22 07:38:55;;;;;;;17.80;13.13;;;11.40;99.90;;;;;;5109340;28;20207;-71
2022/10/22 07:41:22;;;;;;;15.90;12.73;;;11.40;99.90;;;;;;5103154;28;20211;-71
2022/10/22 07:43:53;;;;;;;14.87;11.90;;;11.40;99.90;;;;;;5109317;28;20323;-71
2022/10/22 07:46:20;;;;;;;18.83;13.07;;;11.40;99.90;;;;;;5109740;28;20200;-71
2022/10/22 07:48:47;;;;;;;16.33;12.60;;;11.40;99.90;;;;;;5106367;28;20207;-71
2022/10/22 07:51:14;;;;;;;16.57;13.40;;;11.40;99.90;;;;;;5114179;28;20203;-74
2022/10/22 07:53:41;;;;;;;15.57;12.23;;;11.50;99.90;;;;;;5105855;28;20208;-73
2022/10/22 07:56:08;;;;;;;18.87;13.80;;;11.50;99.90;;;;;;5110255;28;20307;-73
2022/10/22 07:58:35;;;;;;;18.30;13.40;;;11.60;99.90;;;;;;5114950;28;20306;-73
2022/10/22 08:01:05;;;;;;;19.80;13.23;;;11.60;99.90;;;;;;5111187;28;20219;-73
2022/10/22 08:03:32;;;;;;;16.83;12.93;;;11.60;99.90;;;;;;5113385;28;20200;-72
2022/10/22 08:05:59;;;;;;;17.83;12.60;;;11.60;99.90;;;;;;5113472;28;20247;-71
2022/10/22 08:08:28;;;;;;;17.70;13.00;;;11.70;99.90;;;;;;5113193;27;20566;-71
2022/10/22 08:10:57;;;;;;;22.30;13.10;;;11.70;99.90;;;;;;5110698;28;20303;-71
2022/10/22 08:13:25;;;;;;;17.80;13.60;;;11.70;99.90;;;;;;5112359;28;20208;-70
2022/10/22 08:15:51;;;;;;;16.20;12.83;;;11.70;99.90;;;;;;5112439;28;20196;-73
2022/10/22 08:18:19;;;;;;;18.47;13.43;;;11.70;99.90;;;;;;5113001;28;20208;-75
2022/10/22 08:20:46;;;;;;;18.03;13.97;;;11.80;99.90;;;;;;5113430;28;20204;-71
2022/10/22 08:23:13;;;;;;;18.30;13.27;;;11.80;99.90;;;;;;5109741;28;20224;-71
2022/10/22 08:25:40;;;;;;;15.87;13.30;;;11.80;99.90;;;;;;5104995;28;20227;-68
2022/10/22 08:28:06;;;;;;;19.60;13.97;;;11.90;99.90;;;;;;5107477;28;21372;-70
2022/10/22 08:30:36;;;;;;;19.10;13.43;;;11.90;99.90;;;;;;5113987;27;20203;-70
2022/10/22 08:33:03;;;;;;;17.50;13.23;;;11.90;99.90;;;;;;5113257;28;20210;-69
2022/10/22 08:35:31;;;;;;;15.50;12.87;;;11.90;99.90;;;;;;5111381;28;20215;-69
2022/10/22 08:37:58;;;;;;;15.70;12.43;;;12.00;99.90;;;;;;5113027;28;20231;-69
2022/10/22 08:40:30;;;;;;;17.57;13.20;;;12.00;99.90;;;;;;5110959;28;20211;-69
2022/10/22 08:43:18;;;;;;;17.37;12.83;;;12.00;99.90;;;;;;5112697;28;20724;-69
2022/10/22 08:45:53;;;;;;;16.37;12.53;;;12.00;99.90;;;;;;5112743;27;20212;-69
2022/10/22 08:48:36;;;;;;;19.07;12.70;;;12.00;99.90;;;;;;5111430;28;20203;-69
2022/10/22 08:51:05;;;;;;;17.73;11.80;;;12.10;99.90;;;;;;5113823;27;20294;-70
2022/10/22 08:53:41;;;;;;;16.40;12.37;;;12.10;99.90;;;;;;5113535;28;20219;-70
2022/10/22 08:56:08;;;;;;;18.90;12.40;;;12.20;99.90;;;;;;5111652;28;20212;-70
2022/10/22 08:58:42;;;;;;;14.70;11.80;;;12.30;99.90;;;;;;5112694;28;20298;-70
2022/10/22 09:01:13;;;;;;;16.07;11.97;;;12.30;99.90;;;;;;5112506;28;20203;-71
2022/10/22 09:03:48;;;;;;;17.00;12.07;;;12.40;99.90;;;;;;5112695;28;20207;-70
2022/10/22 09:06:20;;;;;;;17.07;12.40;;;12.40;99.90;;;;;;5111690;28;20232;-70
2022/10/22 09:08:48;;;;;;;17.23;12.87;;;12.40;99.90;;;;;;5110811;28;20214;-70
2022/10/22 09:11:22;;;;;;;21.80;11.97;;;12.40;99.90;;;;;;5112834;28;20203;-70
2022/10/22 09:13:52;;;;;;;18.73;12.20;;;12.40;99.90;;;;;;5112735;28;20660;-70
2022/10/22 09:16:26;;;;;;;17.77;13.30;;;12.40;99.90;;;;;;5099997;28;20581;-71
2022/10/22 09:19:06;;;;;;;16.83;12.43;;;12.40;99.90;;;;;;5112904;28;20200;-70
2022/10/22 09:21:42;;;;;;;16.23;12.57;;;12.40;99.90;;;;;;5107676;28;20569;-70
2022/10/22 09:24:13;;;;;;;19.47;13.37;;;12.40;99.90;;;;;;5111497;27;20227;-70
2022/10/22 09:26:41;;;;;;;19.97;13.40;;;12.40;99.90;;;;;;5112911;28;20196;-70
2022/10/22 09:29:14;;;;;;;21.17;13.20;;;12.30;99.90;;;;;;5111393;28;20204;-69
2022/10/22 09:31:40;;;;;;;18.73;13.47;;;12.40;99.90;;;;;;5106336;28;20211;-70
2022/10/22 09:34:07;;;;;;;22.03;14.03;;;12.40;99.90;;;;;;5110801;28;20211;-70
2022/10/22 09:36:37;;;;;;;23.77;15.10;;;12.40;99.90;;;;;;5112541;28;20632;-70
2022/10/22 09:39:04;;;;;;;19.57;15.20;;;12.50;99.90;;;;;;5112593;28;20569;-70
2022/10/22 09:41:31;;;;;;;26.60;15.47;;;12.50;99.90;;;;;;5111195;28;20212;-70
2022/10/22 09:44:01;;;;;;;23.43;14.73;;;12.50;99.90;;;;;;5112471;28;20211;-70
2022/10/22 09:46:30;;;;;;;21.83;14.27;;;12.50;99.90;;;;;;5111496;28;20226;-70
2022/10/22 09:49:07;;;;;;;23.93;15.03;;;12.50;99.90;;;;;;5099750;28;20204;-70
2022/10/22 09:51:49;;;;;;;22.97;15.23;;;12.50;99.90;;;;;;5110668;28;20692;-70
2022/10/22 09:54:18;;;;;;;26.50;15.17;;;12.60;99.90;;;;;;5103044;28;20207;-69
2022/10/22 09:56:53;;;;;;;21.00;14.73;;;12.60;99.90;;;;;;5111707;28;20203;-71
2022/10/22 09:59:32;;;;;;;23.23;14.43;;;12.60;99.90;;;;;;5109868;28;20589;-70
2022/10/22 10:02:02;;;;;;;22.33;15.57;;;12.60;99.90;;;;;;5110196;28;20199;-74
2022/10/22 10:04:35;;;;;;;22.00;14.60;;;12.60;99.90;;;;;;5111266;28;20249;-70
2022/10/22 10:07:03;;;;;;;26.83;15.47;;;12.50;99.90;;;;;;5112698;28;20239;-70
2022/10/22 10:09:32;;;;;;;25.37;15.17;;;12.60;99.90;;;;;;5109979;27;20212;-69
2022/10/22 10:12:08;;;;;;;23.93;14.77;;;12.60;99.90;;;;;;5110145;28;20235;-70
2022/10/22 10:14:44;;;;;;;21.17;15.30;;;12.60;99.90;;;;;;5110842;28;20691;-70
2022/10/22 10:17:24;;;;;;;23.23;15.83;;;13.20;99.90;;;;;;5111022;28;20210;-71
2022/10/22 10:19:59;;;;;;;21.10;15.10;;;12.60;99.90;;;;;;5110696;28;20688;-70
2022/10/22 10:22:43;;;;;;;21.03;14.77;;;12.60;99.90;;;;;;5110771;28;20226;-70
2022/10/22 10:25:23;;;;;;;22.63;15.60;;;12.70;99.90;;;;;;5109074;28;20218;-70
2022/10/22 10:27:56;;;;;;;21.90;14.07;;;12.70;99.90;;;;;;5107070;28;20207;-70
2022/10/22 10:30:24;;;;;;;24.63;15.77;;;12.70;99.90;;;;;;5111087;28;20192;-70
2022/10/22 10:33:05;;;;;;;21.43;15.50;;;12.70;99.90;;;;;;5110975;28;20211;-70
2022/10/22 10:35:43;;;;;;;21.53;15.83;;;12.70;99.90;;;;;;5110643;28;20208;-70
2022/10/22 10:38:24;;;;;;;22.23;14.90;;;12.60;99.90;;;;;;5110431;28;20257;-70
2022/10/22 10:40:58;;;;;;;18.77;15.30;;;12.70;99.90;;;;;;5108736;28;20207;-70
2022/10/22 10:43:32;;;;;;;22.10;14.77;;;12.70;99.90;;;;;;5110401;28;20200;-70
2022/10/22 10:46:10;;;;;;;22.47;15.33;;;12.70;99.90;;;;;;5110880;28;20231;-71
2022/10/22 10:48:48;;;;;;;22.93;14.67;;;12.70;99.90;;;;;;5111194;28;20200;-71
2022/10/22 10:51:32;;;;;;;20.83;15.27;;;12.70;99.90;;;;;;5111343;28;20223;-70
2022/10/22 10:54:18;;;;;;;20.00;14.63;;;12.70;99.90;;;;;;5110836;28;20208;-71
2022/10/22 10:56:48;;;;;;;20.97;14.60;;;13.00;99.90;;;;;;5108897;28;20200;-69
2022/10/22 10:59:23;;;;;;;21.33;14.07;;;12.80;99.90;;;;;;5108936;28;20204;-70
2022/10/22 11:02:02;;;;;;;19.23;14.77;;;12.80;99.90;;;;;;5110098;28;20722;-71
2022/10/22 11:04:52;;;;;;;20.47;14.90;;;12.80;99.90;;;;;;5102047;28;20211;-70
2022/10/22 11:07:26;;;;;;;19.67;14.80;;;12.80;99.90;;;;;;5110401;28;20203;-70
2022/10/22 11:10:00;;;;;;;19.40;14.67;;;12.70;99.90;;;;;;5110216;28;20285;-70
2022/10/22 11:12:31;;;;;;;22.20;15.47;;;12.80;99.90;;;;;;5109939;28;20203;-71
2022/10/22 11:15:02;;;;;;;21.73;15.50;;;12.80;99.90;;;;;;5109477;28;20196;-70
2022/10/22 11:17:36;;;;;;;22.53;15.87;;;12.80;99.90;;;;;;5108486;28;20556;-70
2022/10/22 11:20:07;;;;;;;22.77;16.47;;;12.70;99.90;;;;;;5108602;28;20487;-71
2022/10/22 11:22:38;;;;;;;21.77;15.70;;;12.70;99.90;;;;;;5108516;28;20232;-71
2022/10/22 11:25:16;;;;;;;20.07;15.50;;;12.70;99.90;;;;;;5109929;28;20710;-71
2022/10/22 11:27:48;;;;;;;23.93;17.23;;;12.70;99.90;;;;;;5109473;28;20576;-71
2022/10/22 11:30:18;;;;;;;23.73;16.13;;;12.70;99.90;;;;;;5108185;28;20200;-71
2022/10/22 11:32:49;;;;;;;26.20;16.80;;;12.70;99.90;;;;;;5107695;28;20204;-71
2022/10/22 11:35:19;;;;;;;25.47;16.67;;;12.70;99.90;;;;;;5108679;28;20204;-70
2022/10/22 11:37:47;;;;;;;26.87;16.37;;;12.70;99.90;;;;;;5108492;28;20591;-71
2022/10/22 11:40:20;;;;;;;24.73;16.97;;;12.70;99.90;;;;;;5094566;28;20222;-72
2022/10/22 11:42:50;;;;;;;24.67;16.37;;;12.80;99.90;;;;;;5106665;28;20192;-71
2022/10/22 11:45:35;;;;;;;28.30;16.73;;;12.70;99.90;;;;;;5109821;28;20220;-72
2022/10/22 11:48:14;;;;;;;25.10;17.33;;;12.70;99.90;;;;;;5108806;28;20204;-72
2022/10/22 11:50:47;;;;;;;31.37;17.30;;;12.70;99.90;;;;;;5106579;28;20226;-74
2022/10/22 11:53:21;;;;;;;27.07;16.87;;;12.70;99.90;;;;;;5107262;28;20548;-71
2022/10/22 11:55:52;;;;;;;27.17;16.93;;;12.80;99.90;;;;;;5108978;28;20236;-71
2022/10/22 11:58:42;;;;;;;29.77;18.67;;;12.80;99.90;;;;;;5108786;28;20196;-70
2022/10/22 12:01:24;;;;;;;29.77;17.20;;;12.80;99.90;;;;;;5104731;28;20576;-71
2022/10/22 12:03:53;;;;;;;29.27;17.97;;;12.80;99.90;;;;;;5108541;28;20200;-71
2022/10/22 12:06:23;;;;;;;27.80;18.13;;;12.80;99.90;;;;;;5105729;28;20250;-70
2022/10/22 12:08:59;;;;;;;25.73;16.40;;;12.90;99.90;;;;;;5109203;28;20204;-71
2022/10/22 12:11:34;;;;;;;26.70;17.60;;;12.90;99.90;;;;;;5107820;28;20200;-73
2022/10/22 12:14:19;;;;;;;28.20;18.43;;;13.00;99.90;;;;;;5108253;28;20202;-72
2022/10/22 12:16:48;;;;;;;26.87;17.27;;;13.00;99.90;;;;;;5105135;28;20372;-70
2022/10/22 12:19:18;;;;;;;25.17;17.23;;;13.00;99.90;;;;;;5107178;28;20202;-72
2022/10/22 12:21:49;;;;;;;27.47;17.70;;;13.10;99.90;;;;;;5097561;28;20282;-71
2022/10/22 12:24:18;;;;;;;23.57;17.40;;;13.10;99.90;;;;;;5106157;28;20200;-71
2022/10/22 12:26:48;;;;;;;26.00;16.90;;;13.10;99.90;;;;;;5104190;28;20231;-72
2022/10/22 12:29:17;;;;;;;27.07;17.47;;;13.20;99.90;;;;;;5103836;28;20254;-70
2022/10/22 12:31:45;;;;;;;27.40;17.53;;;13.20;99.90;;;;;;5106981;28;20301;-71
2022/10/22 12:34:15;;;;;;;26.60;16.50;;;13.20;99.90;;;;;;5108821;28;20550;-71
2022/10/22 12:36:42;;;;;;;26.53;18.17;;;13.20;99.90;;;;;;5108351;28;20192;-71
2022/10/22 12:39:15;;;;;;;25.33;17.07;;;13.20;99.90;;;;;;5107488;28;20208;-71
2022/10/22 12:41:43;;;;;;;24.97;16.10;;;13.30;99.90;;;;;;5109946;28;20208;-71
2022/10/22 12:44:14;;;;;;;22.47;16.33;;;13.30;99.90;;;;;;5110596;28;20208;-71